Time;durP1;ratioP1;P1;durP2;ratioP2;P2;SDS_P1;SDS_P2;PMS_P1;PMS_P2;Temp;Humidity;BMP_temperature;BMP_pressure;BME280_temperature;BME280_humidity;BME280_pressure;Samples;Min_cycle;Max_cycle;Signal;HPM_P1;HPM_P2
2021/09/23 00:00:14;;;;;;;10.43;6.50;;;8.50;99.90;;;;;;4993328;28;20470;-59
2021/09/23 00:05:21;;;;;;;11.50;6.37;;;8.40;99.90;;;;;;4990528;28;20415;-60
2021/09/23 00:07:49;;;;;;;8.40;6.23;;;8.40;99.90;;;;;;4978914;28;20877;-59
2021/09/23 00:10:50;;;;;;;9.73;6.73;;;8.40;99.90;;;;;;4999190;28;20526;-60
2021/09/23 00:13:18;;;;;;;9.20;6.50;;;8.30;99.90;;;;;;4978315;28;20435;-59
2021/09/23 00:15:51;;;;;;;9.83;6.70;;;8.30;99.90;;;;;;5009004;28;20446;-59
2021/09/23 00:18:33;;;;;;;8.33;5.77;;;8.30;99.90;;;;;;5006715;28;21179;-60
2021/09/23 00:21:02;;;;;;;7.93;5.60;;;8.20;99.90;;;;;;5006713;28;20513;-59
2021/09/23 00:23:33;;;;;;;8.23;5.70;;;8.20;99.90;;;;;;5007189;28;21000;-60
2021/09/23 00:26:05;;;;;;;10.40;6.90;;;8.10;99.90;;;;;;5008508;28;20427;-59
2021/09/23 00:28:33;;;;;;;9.20;5.80;;;8.10;99.90;;;;;;5002716;28;20434;-59
2021/09/23 00:31:01;;;;;;;8.00;5.67;;;8.10;99.90;;;;;;5006854;28;20466;-59
2021/09/23 00:33:39;;;;;;;9.97;6.30;;;8.00;99.90;;;;;;5009250;28;20427;-59
2021/09/23 00:36:10;;;;;;;7.40;5.77;;;8.00;99.90;;;;;;5008029;28;20505;-59
2021/09/23 00:38:39;;;;;;;9.27;6.40;;;8.00;99.90;;;;;;5001653;28;20979;-60
2021/09/23 00:41:05;;;;;;;9.80;6.70;;;8.00;99.90;;;;;;5000514;28;20546;-59
2021/09/23 00:43:33;;;;;;;10.40;6.93;;;8.00;99.90;;;;;;5007063;28;20874;-60
2021/09/23 00:45:59;;;;;;;9.73;6.30;;;8.00;99.90;;;;;;5002193;28;20192;-59
2021/09/23 00:48:28;;;;;;;10.50;6.80;;;7.90;99.90;;;;;;4999431;28;20452;-60
2021/09/23 00:50:58;;;;;;;9.20;6.23;;;7.90;99.90;;;;;;5003069;28;20222;-59
2021/09/23 00:53:29;;;;;;;8.43;6.13;;;7.90;99.90;;;;;;5006830;28;20858;-59
2021/09/23 00:55:58;;;;;;;8.03;5.87;;;7.90;99.90;;;;;;5000722;28;20431;-60
2021/09/23 00:58:27;;;;;;;8.60;5.70;;;7.90;99.90;;;;;;5005472;28;20855;-59
2021/09/23 01:00:55;;;;;;;10.40;7.07;;;7.80;99.90;;;;;;5006378;28;20518;-60
2021/09/23 01:03:23;;;;;;;12.80;6.97;;;7.80;99.90;;;;;;5007841;28;20435;-60
2021/09/23 01:05:52;;;;;;;8.00;5.80;;;7.80;99.90;;;;;;5011322;28;20437;-59
2021/09/23 01:08:21;;;;;;;9.50;7.47;;;7.80;99.90;;;;;;5009612;28;20527;-59
2021/09/23 01:10:49;;;;;;;9.47;6.00;;;7.80;99.90;;;;;;4984980;28;20456;-59
2021/09/23 01:13:27;;;;;;;12.07;6.70;;;7.80;99.90;;;;;;5004559;28;20996;-59
2021/09/23 01:16:01;;;;;;;8.83;6.10;;;7.80;99.90;;;;;;5011169;28;20931;-59
2021/09/23 01:18:27;;;;;;;7.00;5.20;;;7.70;99.90;;;;;;5009801;28;20434;-59
2021/09/23 01:21:02;;;;;;;7.80;5.93;;;7.70;99.90;;;;;;4994090;28;20459;-58
2021/09/23 01:23:39;;;;;;;8.37;6.03;;;7.60;99.90;;;;;;5008481;28;20172;-59
2021/09/23 01:26:16;;;;;;;12.10;6.03;;;7.60;99.90;;;;;;5010417;28;20906;-59
2021/09/23 01:28:45;;;;;;;8.27;5.80;;;7.60;99.90;;;;;;5009353;28;20422;-59
2021/09/23 01:31:14;;;;;;;8.00;5.97;;;7.50;99.90;;;;;;5005816;28;20451;-60
2021/09/23 01:33:42;;;;;;;9.00;6.50;;;7.50;99.90;;;;;;5009535;28;20518;-59
2021/09/23 01:36:15;;;;;;;8.73;5.67;;;7.50;99.90;;;;;;5007486;28;20423;-59
2021/09/23 01:38:46;;;;;;;11.00;6.30;;;7.50;99.90;;;;;;5008955;28;20769;-60
2021/09/23 01:41:17;;;;;;;6.63;5.33;;;7.50;99.90;;;;;;5010847;28;20459;-60
2021/09/23 01:43:45;;;;;;;7.53;5.73;;;7.50;99.90;;;;;;5010274;28;20442;-60
2021/09/23 01:46:14;;;;;;;10.70;5.60;;;7.50;99.90;;;;;;5005882;28;20483;-59
2021/09/23 01:49:00;;;;;;;28.77;8.03;;;7.40;99.90;;;;;;5003216;28;20904;-59
2021/09/23 01:51:44;;;;;;;19.73;8.03;;;7.40;99.90;;;;;;5007603;28;20870;-60
2021/09/23 01:54:09;;;;;;;10.67;6.63;;;7.30;99.90;;;;;;5012502;28;20498;-59
2021/09/23 01:56:53;;;;;;;13.00;8.00;;;7.30;99.90;;;;;;4992389;28;20531;-59
2021/09/23 01:59:22;;;;;;;14.83;7.20;;;7.30;99.90;;;;;;5009183;28;20489;-59
2021/09/23 02:01:57;;;;;;;11.50;6.97;;;7.30;99.90;;;;;;4986698;28;20467;-59
2021/09/23 02:04:23;;;;;;;13.13;7.60;;;7.30;99.90;;;;;;4992349;28;20434;-59
2021/09/23 02:06:57;;;;;;;10.60;6.43;;;7.30;99.90;;;;;;5010584;28;20408;-59
2021/09/23 02:09:25;;;;;;;9.50;6.30;;;7.30;99.90;;;;;;5007453;28;20168;-59
2021/09/23 02:11:51;;;;;;;11.60;6.00;;;7.30;99.90;;;;;;5009453;28;20474;-59
2021/09/23 02:14:19;;;;;;;14.00;6.63;;;7.30;99.90;;;;;;5009263;28;20653;-59
2021/09/23 02:16:45;;;;;;;9.93;6.47;;;7.20;99.90;;;;;;4987829;28;20247;-60
2021/09/23 02:19:25;;;;;;;10.97;6.17;;;7.30;99.90;;;;;;5007628;28;21038;-60
2021/09/23 02:21:57;;;;;;;9.87;6.00;;;7.20;99.90;;;;;;5007613;28;20204;-59
2021/09/23 02:24:28;;;;;;;7.83;5.53;;;7.20;99.90;;;;;;5009263;28;20806;-59
2021/09/23 02:27:05;;;;;;;11.00;6.00;;;7.20;99.90;;;;;;5001914;28;20446;-59
2021/09/23 02:29:37;;;;;;;11.10;6.47;;;7.20;99.90;;;;;;4990682;28;20419;-59
2021/09/23 02:32:08;;;;;;;8.57;5.60;;;7.20;99.90;;;;;;5005618;28;20427;-59
2021/09/23 02:34:50;;;;;;;7.07;5.23;;;7.10;99.90;;;;;;5004995;28;20487;-60
2021/09/23 02:37:19;;;;;;;9.57;5.90;;;7.10;99.90;;;;;;5000731;28;20434;-59
2021/09/23 02:40:16;;;;;;;10.10;5.30;;;7.10;99.90;;;;;;5005173;28;20469;-59
2021/09/23 02:42:42;;;;;;;7.63;5.17;;;7.10;99.90;;;;;;5009311;28;20927;-59
2021/09/23 02:45:11;;;;;;;7.37;5.10;;;7.10;99.90;;;;;;5004866;28;20848;-58
2021/09/23 02:47:47;;;;;;;8.47;4.83;;;7.00;99.90;;;;;;5009317;28;20419;-59
2021/09/23 02:50:21;;;;;;;13.37;4.60;;;7.00;99.90;;;;;;5026050;28;20476;-60
2021/09/23 02:52:58;;;;;;;6.50;4.80;;;7.00;99.90;;;;;;5010140;28;20939;-59
2021/09/23 02:55:27;;;;;;;8.20;5.53;;;7.00;99.90;;;;;;5006449;28;20438;-60
2021/09/23 02:58:16;;;;;;;8.10;4.70;;;6.90;99.90;;;;;;5000669;28;21939;-59
2021/09/23 03:00:41;;;;;;;7.10;4.83;;;6.90;99.90;;;;;;5004457;28;20464;-60
2021/09/23 03:03:14;;;;;;;7.30;5.10;;;6.90;99.90;;;;;;4999509;28;20430;-59
2021/09/23 03:05:48;;;;;;;8.13;5.37;;;6.90;99.90;;;;;;5010237;28;20807;-60
2021/09/23 03:08:14;;;;;;;7.90;5.23;;;6.90;99.90;;;;;;5009835;28;20480;-59
2021/09/23 03:11:06;;;;;;;7.60;5.47;;;6.90;99.90;;;;;;5011089;28;20506;-59
2021/09/23 03:13:35;;;;;;;18.70;5.80;;;6.80;99.90;;;;;;5009595;28;20184;-60
2021/09/23 03:16:00;;;;;;;8.20;5.23;;;6.80;99.90;;;;;;5007137;28;20420;-60
2021/09/23 03:18:26;;;;;;;10.60;5.70;;;6.80;99.90;;;;;;5008592;28;20435;-58
2021/09/23 03:20:55;;;;;;;6.47;5.10;;;6.80;99.90;;;;;;5008197;28;20755;-59
2021/09/23 03:23:21;;;;;;;10.00;6.00;;;6.80;99.90;;;;;;5002517;28;20211;-60
2021/09/23 03:25:48;;;;;;;8.20;5.90;;;6.80;99.90;;;;;;5010432;28;20407;-60
2021/09/23 03:28:31;;;;;;;6.83;5.10;;;6.80;99.90;;;;;;5008086;28;20180;-59
2021/09/23 03:30:58;;;;;;;7.33;4.80;;;6.80;99.90;;;;;;5008982;28;20455;-59
2021/09/23 03:33:33;;;;;;;11.30;6.40;;;6.80;99.90;;;;;;4990716;28;20506;-60
2021/09/23 03:36:01;;;;;;;14.60;5.60;;;6.80;99.90;;;;;;5012343;28;20454;-59
2021/09/23 03:38:30;;;;;;;36.90;6.63;;;6.70;99.90;;;;;;5007984;28;20458;-60
2021/09/23 03:41:14;;;;;;;25.00;5.20;;;6.70;99.90;;;;;;5009963;28;21043;-59
2021/09/23 03:43:39;;;;;;;24.80;5.47;;;6.60;99.90;;;;;;5009443;28;20915;-60
2021/09/23 03:46:05;;;;;;;28.27;6.03;;;6.60;99.90;;;;;;5009727;28;20415;-59
2021/09/23 03:48:34;;;;;;;22.43;5.67;;;6.50;99.90;;;;;;5001535;28;20671;-59
2021/09/23 03:51:13;;;;;;;46.87;6.00;;;6.50;99.90;;;;;;5006536;28;20213;-59
2021/09/23 03:53:49;;;;;;;19.43;6.10;;;6.50;99.90;;;;;;5004166;28;20431;-58
2021/09/23 03:56:20;;;;;;;28.77;6.50;;;6.40;99.90;;;;;;4985074;28;20473;-57
2021/09/23 03:59:00;;;;;;;29.77;6.30;;;6.40;99.90;;;;;;5002750;28;20507;-57
2021/09/23 04:01:40;;;;;;;14.70;5.53;;;6.40;99.90;;;;;;4996287;28;20462;-56
2021/09/23 04:04:06;;;;;;;19.43;6.40;;;6.40;99.90;;;;;;4986909;28;20490;-56
2021/09/23 04:06:32;;;;;;;9.03;5.30;;;6.30;99.90;;;;;;4983893;28;20937;-57
2021/09/23 04:08:58;;;;;;;18.13;5.80;;;6.30;99.90;;;;;;5006612;28;20230;-57
2021/09/23 04:11:24;;;;;;;13.90;6.00;;;6.30;99.90;;;;;;5001151;28;20200;-57
2021/09/23 04:13:50;;;;;;;16.37;6.80;;;6.30;99.90;;;;;;5003357;28;20502;-57
2021/09/23 04:16:15;;;;;;;17.40;6.30;;;6.30;99.90;;;;;;5003181;28;20814;-57
2021/09/23 04:18:41;;;;;;;13.00;6.20;;;6.30;99.90;;;;;;5000566;28;20177;-59
2021/09/23 04:21:07;;;;;;;16.43;6.37;;;6.30;99.90;;;;;;4982194;28;20274;-61
2021/09/23 04:23:32;;;;;;;18.10;6.10;;;6.30;99.90;;;;;;4986037;28;20175;-60
2021/09/23 04:25:58;;;;;;;15.00;6.60;;;6.30;99.90;;;;;;5006129;28;20173;-61
2021/09/23 04:28:23;;;;;;;39.23;7.03;;;6.30;99.90;;;;;;4999621;28;20172;-61
2021/09/23 04:30:49;;;;;;;59.10;6.90;;;6.20;99.90;;;;;;4992078;28;20735;-61
2021/09/23 04:33:15;;;;;;;25.50;6.17;;;6.20;99.90;;;;;;4996381;28;20180;-61
2021/09/23 04:35:41;;;;;;;15.83;5.67;;;6.10;99.90;;;;;;5008090;28;20264;-61
2021/09/23 04:38:06;;;;;;;27.80;5.67;;;6.00;99.90;;;;;;5005351;28;20219;-61
2021/09/23 04:40:32;;;;;;;15.13;4.80;;;6.00;99.90;;;;;;5007075;28;20769;-60
2021/09/23 04:42:57;;;;;;;33.53;5.60;;;6.00;99.90;;;;;;4986844;28;20176;-61
2021/09/23 04:45:23;;;;;;;80.50;6.23;;;6.00;99.90;;;;;;5006970;28;20263;-61
2021/09/23 04:47:49;;;;;;;48.23;6.77;;;5.90;99.90;;;;;;4996447;28;20199;-61
2021/09/23 04:50:14;;;;;;;44.30;5.70;;;5.80;99.90;;;;;;4994379;28;20217;-61
2021/09/23 04:52:40;;;;;;;65.97;8.37;;;5.70;99.90;;;;;;5000947;28;20177;-61
2021/09/23 04:55:06;;;;;;;71.73;7.60;;;5.70;99.90;;;;;;4989267;28;20633;-61
2021/09/23 04:57:35;;;;;;;16.20;6.60;;;5.50;99.90;;;;;;4991769;28;20183;-60
2021/09/23 05:00:03;;;;;;;18.43;9.00;;;5.40;99.90;;;;;;5007148;28;20474;-61
2021/09/23 05:02:31;;;;;;;37.60;8.20;;;5.50;99.90;;;;;;5014078;28;20506;-61
2021/09/23 05:04:57;;;;;;;13.87;6.20;;;5.50;99.90;;;;;;5008333;28;20439;-61
2021/09/23 05:07:22;;;;;;;32.83;6.63;;;5.60;99.90;;;;;;5008179;28;20459;-61
2021/09/23 05:09:48;;;;;;;51.73;7.60;;;5.60;99.90;;;;;;5012433;28;20855;-61
2021/09/23 05:12:14;;;;;;;27.87;6.27;;;5.60;99.90;;;;;;4999603;28;20645;-60
2021/09/23 05:14:39;;;;;;;16.13;5.40;;;5.60;99.90;;;;;;4995308;28;20173;-60
2021/09/23 05:17:06;;;;;;;9.37;5.27;;;5.60;99.90;;;;;;4996250;28;20177;-60
2021/09/23 05:19:31;;;;;;;9.40;5.40;;;5.60;99.90;;;;;;4994137;28;20185;-60
2021/09/23 05:21:57;;;;;;;20.23;5.13;;;5.60;99.90;;;;;;5006121;28;20808;-60
2021/09/23 05:24:23;;;;;;;22.33;5.67;;;5.60;99.90;;;;;;5009266;28;20222;-60
2021/09/23 05:26:48;;;;;;;12.30;6.33;;;5.70;99.90;;;;;;5014902;28;20231;-61
2021/09/23 05:29:14;;;;;;;25.43;5.93;;;5.70;99.90;;;;;;4997075;28;20251;-60
2021/09/23 05:31:40;;;;;;;29.00;6.20;;;5.70;99.90;;;;;;5026942;28;20210;-61
2021/09/23 05:34:05;;;;;;;24.40;5.90;;;5.70;99.90;;;;;;5004240;28;20611;-60
2021/09/23 05:36:31;;;;;;;40.23;6.30;;;5.70;99.90;;;;;;4998492;28;20642;-60
2021/09/23 05:38:59;;;;;;;37.17;6.20;;;5.70;99.90;;;;;;5008180;28;20429;-60
2021/09/23 05:41:26;;;;;;;32.93;5.40;;;5.70;99.90;;;;;;5014269;28;20474;-59
2021/09/23 05:43:52;;;;;;;101.70;9.10;;;5.70;99.90;;;;;;5015854;28;20663;-60
2021/09/23 05:46:17;;;;;;;61.93;9.47;;;5.70;99.90;;;;;;5015691;28;20481;-61
2021/09/23 05:48:43;;;;;;;165.43;13.00;;;5.70;99.90;;;;;;5026452;28;20168;-60
2021/09/23 05:51:09;;;;;;;70.80;11.10;;;5.70;99.90;;;;;;5017563;28;20263;-61
2021/09/23 05:53:34;;;;;;;38.83;11.10;;;5.80;99.90;;;;;;5011954;28;20168;-60
2021/09/23 05:56:00;;;;;;;53.73;11.30;;;5.80;99.90;;;;;;4989892;28;20173;-60
2021/09/23 05:58:26;;;;;;;119.43;13.17;;;5.90;99.90;;;;;;4994895;28;20561;-60
2021/09/23 06:00:51;;;;;;;109.30;10.50;;;6.00;99.90;;;;;;5015712;28;20426;-60
2021/09/23 06:03:17;;;;;;;132.00;11.57;;;6.00;99.90;;;;;;4995473;28;20291;-60
2021/09/23 06:05:43;;;;;;;91.37;10.73;;;6.00;99.90;;;;;;5010683;28;20175;-60
2021/09/23 06:08:08;;;;;;;40.00;10.30;;;5.90;99.90;;;;;;5010741;28;20208;-61
2021/09/23 06:10:34;;;;;;;197.10;12.77;;;6.00;99.90;;;;;;4990047;28;20200;-60
2021/09/23 06:13:02;;;;;;;155.00;11.80;;;6.00;99.90;;;;;;5011348;28;20184;-60
2021/09/23 06:15:27;;;;;;;26.33;9.60;;;6.00;99.90;;;;;;5012219;28;20208;-60
2021/09/23 06:17:53;;;;;;;45.30;9.57;;;6.00;99.90;;;;;;4993423;28;20439;-60
2021/09/23 06:20:20;;;;;;;42.77;10.30;;;6.10;99.90;;;;;;5011208;28;20902;-60
2021/09/23 06:22:45;;;;;;;92.03;11.13;;;6.20;99.90;;;;;;5010709;28;20172;-60
2021/09/23 06:25:12;;;;;;;66.57;11.27;;;6.20;99.90;;;;;;5010003;28;20435;-60
2021/09/23 06:27:38;;;;;;;118.73;11.60;;;6.30;99.90;;;;;;5015100;28;20176;-60
2021/09/23 06:30:05;;;;;;;28.30;9.60;;;6.30;99.90;;;;;;5002524;28;20526;-60
2021/09/23 06:32:30;;;;;;;65.93;11.27;;;6.30;99.90;;;;;;5010764;28;20340;-60
2021/09/23 06:34:56;;;;;;;86.43;11.30;;;6.40;99.90;;;;;;5011795;28;20407;-61
2021/09/23 06:37:21;;;;;;;63.07;11.50;;;6.50;99.90;;;;;;5011244;28;20173;-60
2021/09/23 06:39:47;;;;;;;42.87;11.30;;;6.40;99.90;;;;;;5015352;28;20259;-60
2021/09/23 06:42:16;;;;;;;41.83;13.00;;;6.50;99.90;;;;;;4973167;28;20205;-60
2021/09/23 06:44:43;;;;;;;90.70;14.43;;;6.60;99.90;;;;;;4995446;28;20173;-61
2021/09/23 06:47:09;;;;;;;113.33;14.70;;;6.60;99.90;;;;;;5010095;28;20443;-61
2021/09/23 06:49:34;;;;;;;123.10;15.90;;;6.70;99.90;;;;;;4985725;28;20463;-61
2021/09/23 06:52:00;;;;;;;72.40;15.17;;;6.60;99.90;;;;;;4974081;28;20416;-60
2021/09/23 06:54:26;;;;;;;78.93;14.80;;;6.60;99.90;;;;;;4989687;28;20382;-61
2021/09/23 06:56:51;;;;;;;147.70;17.33;;;6.70;99.90;;;;;;5010008;28;20637;-60
2021/09/23 06:59:17;;;;;;;67.57;15.47;;;6.70;99.90;;;;;;5007572;28;20219;-60
2021/09/23 07:01:42;;;;;;;56.13;14.83;;;6.70;99.90;;;;;;5008061;28;20209;-61
2021/09/23 07:04:08;;;;;;;38.10;15.77;;;6.80;99.90;;;;;;5000454;28;20633;-60
2021/09/23 07:06:34;;;;;;;55.73;17.60;;;6.90;99.90;;;;;;5009488;28;20176;-61
2021/09/23 07:09:00;;;;;;;44.43;16.90;;;7.00;99.90;;;;;;5009459;28;20208;-61
2021/09/23 07:11:25;;;;;;;46.10;18.10;;;7.00;99.90;;;;;;4992359;28;20740;-60
2021/09/23 07:13:51;;;;;;;60.60;18.00;;;7.10;99.90;;;;;;5014659;28;20253;-61
2021/09/23 07:16:17;;;;;;;110.03;20.60;;;7.20;99.90;;;;;;5012860;28;20176;-61
2021/09/23 07:18:43;;;;;;;46.17;17.30;;;7.30;99.90;;;;;;5006024;28;20199;-60
2021/09/23 07:21:08;;;;;;;71.27;18.87;;;7.30;99.90;;;;;;4989669;28;20218;-61
2021/09/23 07:23:34;;;;;;;55.30;18.00;;;7.30;99.90;;;;;;4993056;28;20415;-61
2021/09/23 07:26:00;;;;;;;48.80;19.80;;;7.40;99.90;;;;;;5009294;28;20893;-60
2021/09/23 07:28:26;;;;;;;62.60;19.13;;;7.40;99.90;;;;;;5008404;28;20312;-60
2021/09/23 07:30:52;;;;;;;41.30;17.83;;;7.50;99.90;;;;;;5012649;28;20823;-60
2021/09/23 07:33:18;;;;;;;47.23;16.23;;;7.60;99.90;;;;;;5012039;28;20692;-61
2021/09/23 07:35:44;;;;;;;33.90;15.57;;;7.70;99.90;;;;;;5002991;28;20435;-61
2021/09/23 07:38:10;;;;;;;39.60;16.77;;;7.80;99.90;;;;;;5008484;28;20420;-60
2021/09/23 07:40:36;;;;;;;40.07;17.73;;;8.00;99.90;;;;;;5010163;28;20382;-60
2021/09/23 07:43:01;;;;;;;44.60;16.57;;;8.10;99.90;;;;;;5009327;28;20255;-60
2021/09/23 07:45:28;;;;;;;40.90;16.63;;;8.20;99.90;;;;;;5023081;28;20668;-60
2021/09/23 07:47:54;;;;;;;40.67;15.80;;;8.30;99.90;;;;;;5008493;28;20184;-60
2021/09/23 07:50:20;;;;;;;31.07;14.70;;;8.40;99.90;;;;;;5006062;28;20896;-60
2021/09/23 07:52:45;;;;;;;36.30;14.93;;;8.50;99.90;;;;;;5009353;28;20210;-60
2021/09/23 07:55:11;;;;;;;34.50;13.57;;;8.60;99.90;;;;;;5024367;28;20188;-60
2021/09/23 07:57:38;;;;;;;28.37;12.97;;;8.70;99.90;;;;;;5011381;28;20195;-60
2021/09/23 08:00:05;;;;;;;35.43;13.50;;;8.80;99.90;;;;;;5016077;28;20752;-61
2021/09/23 08:02:31;;;;;;;29.30;13.43;;;8.90;99.90;;;;;;4990144;28;20527;-60
2021/09/23 08:04:57;;;;;;;23.97;12.27;;;9.00;99.90;;;;;;5010779;28;20948;-60
2021/09/23 08:07:22;;;;;;;27.70;11.73;;;9.10;99.90;;;;;;5008386;28;20549;-60
2021/09/23 08:09:48;;;;;;;24.70;11.83;;;9.20;99.90;;;;;;4997220;28;20212;-60
2021/09/23 08:12:14;;;;;;;28.57;11.17;;;9.30;99.90;;;;;;5008609;28;20637;-60
2021/09/23 08:14:40;;;;;;;24.63;11.93;;;9.40;99.90;;;;;;5009342;28;20176;-60
2021/09/23 08:17:05;;;;;;;28.73;13.07;;;9.50;99.90;;;;;;5008692;28;20184;-60
2021/09/23 08:19:35;;;;;;;24.27;12.47;;;9.60;99.90;;;;;;4986679;28;20438;-61
2021/09/23 08:22:01;;;;;;;30.10;12.17;;;9.70;99.90;;;;;;4997465;28;20567;-60
2021/09/23 08:24:27;;;;;;;19.83;10.30;;;9.80;99.90;;;;;;4981300;28;20828;-60
2021/09/23 08:26:53;;;;;;;19.47;9.70;;;9.90;99.90;;;;;;5007630;28;20420;-60
2021/09/23 08:29:18;;;;;;;21.57;11.67;;;10.10;99.90;;;;;;5018508;28;20210;-60
2021/09/23 08:31:44;;;;;;;19.57;11.30;;;10.20;99.90;;;;;;5007023;28;20266;-60
2021/09/23 08:34:10;;;;;;;23.10;11.47;;;10.30;99.90;;;;;;5009845;28;20180;-60
2021/09/23 08:36:36;;;;;;;21.53;12.57;;;10.50;99.90;;;;;;5009328;28;20412;-61
2021/09/23 08:39:02;;;;;;;23.50;12.70;;;10.70;99.90;;;;;;5007965;28;20646;-61
2021/09/23 08:41:28;;;;;;;25.03;12.63;;;10.80;99.90;;;;;;5008408;28;20291;-61
2021/09/23 08:43:55;;;;;;;22.10;11.83;;;11.00;99.90;;;;;;4993696;28;21051;-61
2021/09/23 08:46:20;;;;;;;19.73;11.10;;;11.20;99.90;;;;;;5001678;28;20184;-61
2021/09/23 08:48:48;;;;;;;17.73;10.10;;;11.40;99.90;;;;;;5007846;28;20527;-61
2021/09/23 08:51:14;;;;;;;20.00;11.47;;;11.60;99.90;;;;;;5008995;28;20241;-62
2021/09/23 08:53:41;;;;;;;19.97;10.90;;;11.80;99.90;;;;;;5006830;28;20439;-61
2021/09/23 08:56:14;;;;;;;19.53;10.03;;;12.00;99.90;;;;;;4987348;28;20491;-61
2021/09/23 08:58:40;;;;;;;14.33;8.90;;;12.20;99.90;;;;;;5003076;28;20792;-61
2021/09/23 09:01:15;;;;;;;16.47;9.10;;;12.40;99.90;;;;;;5008209;28;20466;-60
2021/09/23 09:03:41;;;;;;;18.03;8.37;;;12.50;99.90;;;;;;5007098;28;20426;-61
2021/09/23 09:06:09;;;;;;;15.77;8.73;;;12.70;99.90;;;;;;4994758;28;20506;-61
2021/09/23 09:08:36;;;;;;;16.60;8.17;;;13.00;99.90;;;;;;4987685;28;20243;-61
2021/09/23 09:11:05;;;;;;;15.63;8.10;;;13.20;99.90;;;;;;4993195;28;20451;-61
2021/09/23 09:13:43;;;;;;;21.13;7.70;;;13.40;99.90;;;;;;4991060;28;20812;-61
2021/09/23 09:16:14;;;;;;;17.03;7.90;;;13.60;99.90;;;;;;5008948;28;20412;-61
2021/09/23 09:18:41;;;;;;;19.10;8.63;;;13.80;99.90;;;;;;5008446;28;20407;-60
2021/09/23 09:21:11;;;;;;;10.70;6.47;;;14.00;99.90;;;;;;5006025;28;20470;-61
2021/09/23 09:23:42;;;;;;;8.60;5.80;;;14.20;99.90;;;;;;5004573;28;20621;-58
2021/09/23 09:26:09;;;;;;;9.70;5.00;;;14.30;99.90;;;;;;5006475;28;20407;-58
2021/09/23 09:28:48;;;;;;;7.17;5.77;;;14.50;99.90;;;;;;5010446;28;21006;-60
2021/09/23 09:31:14;;;;;;;7.13;5.50;;;14.60;99.80;;;;;;5008982;28;20474;-60
2021/09/23 09:33:42;;;;;;;8.50;5.87;;;14.80;99.40;;;;;;5009926;28;20446;-60
2021/09/23 09:36:35;;;;;;;15.30;6.03;;;14.90;99.50;;;;;;4990892;28;20439;-60
2021/09/23 09:39:13;;;;;;;6.60;5.03;;;15.10;98.60;;;;;;5009195;28;20550;-60
2021/09/23 09:41:42;;;;;;;7.63;5.13;;;15.20;99.20;;;;;;5010608;28;20506;-61
2021/09/23 09:44:11;;;;;;;13.50;5.87;;;15.40;99.60;;;;;;5013411;28;20710;-60
2021/09/23 09:46:40;;;;;;;11.33;5.03;;;15.50;98.60;;;;;;4993838;28;20454;-60
2021/09/23 09:49:07;;;;;;;7.73;4.57;;;15.70;99.70;;;;;;5007887;28;20747;-61
2021/09/23 09:51:38;;;;;;;9.90;4.90;;;15.90;99.90;;;;;;4999981;28;20798;-61
2021/09/23 09:54:05;;;;;;;9.73;4.90;;;16.10;98.70;;;;;;4991040;28;20440;-60
2021/09/23 09:56:31;;;;;;;5.50;4.10;;;16.30;96.50;;;;;;5012590;28;20431;-60
2021/09/23 09:59:07;;;;;;;8.13;4.93;;;16.40;96.80;;;;;;5010986;28;20752;-61
2021/09/23 10:01:32;;;;;;;8.10;5.20;;;16.50;95.50;;;;;;5011488;28;20199;-60
2021/09/23 10:03:58;;;;;;;6.70;5.23;;;16.60;92.90;;;;;;5024585;28;20427;-60
2021/09/23 10:06:25;;;;;;;6.33;4.70;;;16.70;91.60;;;;;;5010457;28;20177;-61
2021/09/23 10:08:51;;;;;;;8.10;4.70;;;16.70;93.20;;;;;;4978496;28;20435;-60
2021/09/23 10:11:18;;;;;;;7.30;4.67;;;16.80;94.00;;;;;;5018411;28;20459;-56
2021/09/23 10:13:44;;;;;;;5.60;4.83;;;17.00;93.70;;;;;;5016775;28;20951;-56
2021/09/23 10:16:11;;;;;;;8.30;5.43;;;17.20;91.50;;;;;;5009494;28;20493;-56
2021/09/23 10:18:38;;;;;;;5.47;4.53;;;17.20;91.60;;;;;;5005312;28;20443;-55
2021/09/23 10:21:05;;;;;;;6.40;5.07;;;17.30;85.30;;;;;;5010494;28;20471;-56
2021/09/23 10:23:38;;;;;;;8.03;4.67;;;17.40;87.30;;;;;;4999333;28;20441;-61
2021/09/23 10:26:05;;;;;;;6.50;4.70;;;17.60;85.00;;;;;;4997898;28;20995;-61
2021/09/23 10:28:31;;;;;;;5.50;4.37;;;17.60;83.60;;;;;;5008573;28;20427;-59
2021/09/23 10:30:57;;;;;;;4.10;3.70;;;17.80;80.20;;;;;;5007195;28;21077;-55
2021/09/23 10:33:23;;;;;;;6.67;3.93;;;17.90;81.10;;;;;;5006037;28;20439;-54
2021/09/23 10:35:50;;;;;;;5.50;4.20;;;18.00;77.90;;;;;;5002311;28;20260;-58
2021/09/23 10:38:16;;;;;;;6.40;4.40;;;18.20;84.50;;;;;;5006996;28;20939;-54
2021/09/23 10:40:43;;;;;;;3.60;3.00;;;18.40;86.50;;;;;;5008193;28;21023;-55
2021/09/23 10:43:16;;;;;;;3.57;3.27;;;18.50;71.40;;;;;;5005514;28;20950;-56
2021/09/23 10:45:43;;;;;;;5.00;4.50;;;18.60;70.10;;;;;;5004752;28;20896;-56
2021/09/23 10:48:10;;;;;;;5.93;4.47;;;18.60;75.30;;;;;;5002602;28;20439;-58
2021/09/23 10:50:38;;;;;;;6.30;4.43;;;18.70;73.30;;;;;;5006677;28;20513;-58
2021/09/23 10:53:06;;;;;;;5.63;3.87;;;18.90;71.90;;;;;;4984627;28;20431;-60
2021/09/23 10:55:35;;;;;;;6.40;4.43;;;19.00;71.80;;;;;;5005728;28;20465;-61
2021/09/23 10:58:04;;;;;;;4.70;4.23;;;19.10;71.40;;;;;;5005801;28;20435;-61
2021/09/23 11:00:33;;;;;;;14.10;5.07;;;19.20;69.90;;;;;;5006581;28;20462;-62
2021/09/23 11:03:06;;;;;;;10.07;5.20;;;19.30;70.30;;;;;;5004213;28;20431;-62
2021/09/23 11:05:31;;;;;;;10.23;4.90;;;19.30;67.80;;;;;;5005865;28;21053;-61
2021/09/23 11:08:00;;;;;;;8.10;5.77;;;19.40;69.90;;;;;;5003685;28;20428;-60
2021/09/23 11:10:27;;;;;;;7.10;4.67;;;19.40;70.30;;;;;;5006795;28;20715;-60
2021/09/23 11:12:59;;;;;;;9.50;5.60;;;19.50;71.60;;;;;;5005733;28;20427;-57
2021/09/23 11:15:30;;;;;;;4.40;4.00;;;19.60;71.50;;;;;;4991379;28;20952;-56
2021/09/23 11:17:59;;;;;;;5.93;3.87;;;19.80;69.40;;;;;;5001517;28;20447;-57
2021/09/23 11:20:28;;;;;;;8.90;5.00;;;20.00;66.50;;;;;;4988582;28;21015;-56
2021/09/23 11:23:04;;;;;;;8.90;5.47;;;20.10;64.70;;;;;;5004755;28;20909;-59
2021/09/23 11:25:36;;;;;;;8.90;4.63;;;20.20;63.70;;;;;;4990563;28;20502;-57
2021/09/23 11:28:03;;;;;;;8.97;5.43;;;20.20;62.00;;;;;;5007441;28;20998;-58
2021/09/23 11:30:31;;;;;;;20.10;5.60;;;20.30;62.30;;;;;;5009034;28;20991;-58
2021/09/23 11:33:03;;;;;;;9.73;5.00;;;20.40;63.70;;;;;;5012535;28;20430;-60
2021/09/23 11:35:31;;;;;;;9.57;6.23;;;20.60;65.20;;;;;;5013910;28;20449;-59
2021/09/23 11:37:58;;;;;;;9.60;6.23;;;20.80;62.30;;;;;;5009336;28;20494;-59
2021/09/23 11:40:27;;;;;;;10.90;6.70;;;21.00;62.40;;;;;;5012360;28;21044;-59
2021/09/23 11:42:53;;;;;;;12.53;7.67;;;21.10;60.60;;;;;;5001407;28;20773;-60
2021/09/23 11:45:23;;;;;;;12.17;6.90;;;21.20;60.10;;;;;;5006026;28;20898;-58
2021/09/23 11:47:57;;;;;;;13.67;7.00;;;21.30;59.10;;;;;;5016417;28;20457;-58
2021/09/23 11:50:40;;;;;;;9.33;7.37;;;21.50;60.10;;;;;;4988364;28;20941;-59
2021/09/23 11:53:09;;;;;;;12.57;8.10;;;21.60;59.10;;;;;;4999474;28;20408;-59
2021/09/23 11:55:42;;;;;;;12.90;7.23;;;21.70;58.00;;;;;;5008172;28;20431;-58
2021/09/23 11:58:14;;;;;;;11.13;8.73;;;21.60;57.00;;;;;;5007607;28;20427;-60
2021/09/23 12:00:48;;;;;;;11.20;8.40;;;21.50;57.10;;;;;;5009382;28;20482;-58
2021/09/23 12:03:17;;;;;;;10.77;7.77;;;21.50;57.30;;;;;;5008367;28;20955;-59
2021/09/23 12:05:44;;;;;;;10.90;7.20;;;21.50;57.90;;;;;;4990959;28;20454;-59
2021/09/23 12:08:11;;;;;;;10.80;7.00;;;21.60;58.50;;;;;;5008206;28;20612;-59
2021/09/23 12:10:48;;;;;;;7.43;6.63;;;21.70;57.30;;;;;;5017561;28;20816;-59
2021/09/23 12:16:19;;;;;;;10.50;6.83;;;21.80;57.00;;;;;;4996183;28;20430;-60
2021/09/23 12:18:46;;;;;;;10.80;6.47;;;21.90;56.40;;;;;;5013245;28;20486;-59
2021/09/23 12:21:33;;;;;;;9.83;6.43;;;22.00;56.80;;;;;;5026162;28;21043;-58
2021/09/23 12:23:59;;;;;;;11.73;6.43;;;22.10;56.40;;;;;;5028502;28;20449;-59
2021/09/23 12:26:25;;;;;;;9.00;6.03;;;22.20;55.90;;;;;;5013536;28;20962;-59
2021/09/23 12:28:58;;;;;;;10.47;6.20;;;22.20;56.10;;;;;;5026614;28;20182;-59
2021/09/23 12:31:33;;;;;;;13.83;6.20;;;22.30;55.80;;;;;;4988801;28;20517;-59
2021/09/23 12:34:07;;;;;;;8.13;5.60;;;22.40;55.90;;;;;;4990883;28;20426;-59
2021/09/23 12:36:34;;;;;;;12.73;5.50;;;22.50;56.00;;;;;;5006778;28;20831;-58
2021/09/23 12:39:17;;;;;;;8.60;5.57;;;22.60;55.70;;;;;;5007437;28;20423;-58
2021/09/23 12:41:52;;;;;;;8.03;5.63;;;22.70;55.40;;;;;;5007218;28;20465;-58
2021/09/23 12:44:29;;;;;;;7.93;5.67;;;22.80;55.00;;;;;;5009043;28;20457;-60
2021/09/23 12:47:17;;;;;;;6.27;5.10;;;22.80;55.40;;;;;;5005496;28;20685;-58
2021/09/23 12:49:49;;;;;;;7.80;5.50;;;23.00;54.90;;;;;;5013814;28;20505;-59
2021/09/23 12:52:24;;;;;;;6.90;5.33;;;23.00;54.70;;;;;;5015639;28;20772;-59
2021/09/23 12:54:59;;;;;;;8.43;5.30;;;23.10;54.40;;;;;;5016013;28;20511;-57
2021/09/23 12:57:31;;;;;;;7.67;5.57;;;23.00;54.60;;;;;;5008435;28;20948;-57
2021/09/23 13:00:13;;;;;;;10.70;5.27;;;23.00;54.40;;;;;;5003079;28;20447;-59